Time;durP1;ratioP1;P1;durP2;ratioP2;P2;SDS_P1;SDS_P2;PMS_P1;PMS_P2;Temp;Humidity;BMP_temperature;BMP_pressure;BME280_temperature;BME280_humidity;BME280_pressure;Samples;Min_cycle;Max_cycle;Signal;HPM_P1;HPM_P2
2022/09/11 00:01:55;;;;;;;;;;;;;;;13.65;81.94;100207.19;1671787;84;20261;-74
2022/09/11 00:04:21;;;;;;;;;;;;;;;13.59;81.94;100204.76;1671727;84;20727;-74
2022/09/11 00:06:47;;;;;;;;;;;;;;;13.60;82.02;100209.61;1673161;84;21162;-74
2022/09/11 00:09:13;;;;;;;;;;;;;;;13.54;82.02;100212.56;1655330;85;20209;-74
2022/09/11 00:11:40;;;;;;;;;;;;;;;13.46;82.00;100206.83;1673266;85;20210;-74
2022/09/11 00:14:07;;;;;;;;;;;;;;;13.40;82.07;100198.74;1673362;85;20502;-74
2022/09/11 00:16:35;;;;;;;;;;;;;;;13.35;82.07;100195.30;1673133;85;20231;-74
2022/09/11 00:19:12;;;;;;;;;;;;;;;13.33;82.09;100196.52;1673272;85;21887;-74
2022/09/11 00:21:38;;;;;;;;;;;;;;;13.27;82.13;100196.75;1674307;84;20188;-74
2022/09/11 00:24:04;;;;;;;;;;;;;;;13.22;82.23;100199.20;1677000;85;20206;-74
2022/09/11 00:26:30;;;;;;;;;;;;;;;13.21;82.30;100210.92;1677463;85;20830;-74
2022/09/11 00:28:56;;;;;;;;;;;;;;;13.18;82.34;100212.65;1676689;85;20218;-74
2022/09/11 00:31:24;;;;;;;;;;;;;;;13.18;82.41;100212.65;1677512;85;21120;-74
2022/09/11 00:33:50;;;;;;;;;;;;;;;13.20;82.47;100207.91;1677246;85;20549;-74
2022/09/11 00:36:22;;;;;;;;;;;;;;;13.22;82.52;100205.89;1677596;85;20543;-74
2022/09/11 00:38:48;;;;;;;;;;;;;;;13.26;82.59;100203.16;1676069;85;20761;-74
2022/09/11 00:41:18;;;;;;;;;;;;;;;13.26;82.59;100207.17;1658189;85;20238;-74
2022/09/11 00:43:58;;;;;;;;;;;;;;;13.26;82.66;100207.17;1677168;85;21089;-75
2022/09/11 00:46:36;;;;;;;;;;;;;;;13.28;82.72;100205.12;1659552;85;20191;-74
2022/09/11 00:49:07;;;;;;;;;;;;;;;13.32;82.77;100209.08;1676885;85;20214;-75
2022/09/11 00:51:33;;;;;;;;;;;;;;;13.34;82.79;100204.84;1677620;85;20511;-75
2022/09/11 00:53:59;;;;;;;;;;;;;;;13.33;82.84;100212.08;1676123;84;20250;-74
2022/09/11 00:56:27;;;;;;;;;;;;;;;13.32;82.87;100210.92;1677459;84;21050;-74
2022/09/11 00:58:53;;;;;;;;;;;;;;;13.30;82.92;100221.81;1677277;85;20235;-74
2022/09/11 01:01:19;;;;;;;;;;;;;;;13.27;82.97;100214.16;1678261;85;20179;-74
2022/09/11 01:03:45;;;;;;;;;;;;;;;13.25;83.00;100213.55;1677926;85;20249;-75
2022/09/11 01:06:11;;;;;;;;;;;;;;;13.25;83.01;100212.20;1677762;84;20198;-75
2022/09/11 01:08:37;;;;;;;;;;;;;;;13.22;83.04;100205.89;1672045;85;21161;-75
2022/09/11 01:11:36;;;;;;;;;;;;;;;13.24;83.08;100208.36;1663168;85;20233;-75
2022/09/11 01:14:09;;;;;;;;;;;;;;;13.25;83.10;100201.48;1640394;85;20199;-74
2022/09/11 01:16:52;;;;;;;;;;;;;;;13.29;83.17;100206.78;1668157;85;20190;-74
2022/09/11 01:19:24;;;;;;;;;;;;;;;13.32;83.16;100201.04;1668264;85;20215;-74
2022/09/11 01:22:10;;;;;;;;;;;;;;;13.33;83.17;100197.34;1676781;84;21039;-75
2022/09/11 01:25:00;;;;;;;;;;;;;;;13.32;83.23;100201.04;1670991;84;20191;-74
2022/09/11 01:27:44;;;;;;;;;;;;;;;13.36;83.23;100202.31;1668880;86;20495;-74
2022/09/11 01:30:16;;;;;;;;;;;;;;;13.37;83.25;100205.29;1670466;84;20515;-74
2022/09/11 01:33:10;;;;;;;;;;;;;;;13.34;83.25;100194.97;1653755;85;38281;-74
2022/09/11 01:35:42;;;;;;;;;;;;;;;13.31;83.29;100207.41;1669941;85;22010;-74
2022/09/11 01:38:15;;;;;;;;;;;;;;;13.32;83.34;100202.38;1669586;84;20622;-74
2022/09/11 01:40:48;;;;;;;;;;;;;;;13.31;83.33;100206.06;1670926;85;20191;-74
2022/09/11 01:43:16;;;;;;;;;;;;;;;13.33;83.36;100205.89;1671036;85;20203;-74
2022/09/11 01:45:44;;;;;;;;;;;;;;;13.33;83.37;100201.37;1669688;86;20199;-74
2022/09/11 01:48:11;;;;;;;;;;;;;;;13.30;83.36;100201.72;1670725;85;21858;-74
2022/09/11 01:50:38;;;;;;;;;;;;;;;13.25;83.38;100197.47;1653688;84;20241;-74
2022/09/11 01:53:04;;;;;;;;;;;;;;;13.22;83.35;100199.20;1669771;85;20220;-74
2022/09/11 01:55:41;;;;;;;;;;;;;;;13.16;83.40;100202.63;1670901;85;20719;-74
2022/09/11 01:58:16;;;;;;;;;;;;;;;13.12;83.41;100194.68;1670951;85;20179;-74
2022/09/11 02:00:44;;;;;;;;;;;;;;;13.09;83.44;100190.19;1661283;84;21164;-74
2022/09/11 02:03:21;;;;;;;;;;;;;;;13.05;83.51;100188.40;1671588;84;20557;-74
2022/09/11 02:05:53;;;;;;;;;;;;;;;13.02;83.50;100183.40;1669952;84;20218;-74
2022/09/11 02:08:21;;;;;;;;;;;;;;;13.01;83.58;100192.47;1668276;85;20194;-74
2022/09/11 02:10:51;;;;;;;;;;;;;;;13.01;83.59;100191.13;1668768;86;20195;-74
2022/09/11 02:13:28;;;;;;;;;;;;;;;13.02;83.63;100190.92;1653334;86;21032;-74
2022/09/11 02:15:56;;;;;;;;;;;;;;;13.07;83.69;100192.20;1666237;85;20199;-74
2022/09/11 02:18:40;;;;;;;;;;;;;;;13.10;83.72;100191.34;1670091;85;20525;-74
2022/09/11 02:21:06;;;;;;;;;;;;;;;13.17;83.76;100194.08;1662942;84;20614;-74
2022/09/11 02:23:32;;;;;;;;;;;;;;;13.22;83.79;100188.48;1674643;84;20324;-74
2022/09/11 02:25:58;;;;;;;;;;;;;;;13.25;83.84;100185.92;1651002;85;21095;-74
2022/09/11 02:28:24;;;;;;;;;;;;;;;13.27;83.89;100184.70;1674731;85;20802;-74
2022/09/11 02:30:50;;;;;;;;;;;;;;;13.30;83.92;100187.00;1676406;85;20316;-74
2022/09/11 02:33:34;;;;;;;;;;;;;;;13.33;83.96;100189.82;1676689;84;20186;-74
2022/09/11 02:36:07;;;;;;;;;;;;;;;13.34;83.98;100187.44;1676662;84;20195;-74
2022/09/11 02:38:51;;;;;;;;;;;;;;;13.36;84.03;100186.25;1674382;85;21083;-74
2022/09/11 02:41:20;;;;;;;;;;;;;;;13.38;84.05;100184.19;1630733;85;20127;-74
2022/09/11 02:43:58;;;;;;;;;;;;;;;13.41;84.09;100185.14;1674726;85;20495;-74
2022/09/11 02:46:57;;;;;;;;;;;;;;;13.48;84.13;100189.20;1658371;85;20713;-74
2022/09/11 02:49:38;;;;;;;;;;;;;;;13.48;84.14;100187.36;1674253;84;20203;-74
2022/09/11 02:52:29;;;;;;;;;;;;;;;13.53;84.19;100188.64;1664759;85;21145;-74
2022/09/11 02:55:04;;;;;;;;;;;;;;;13.56;84.22;100186.91;1675129;84;20187;-74
2022/09/11 02:57:33;;;;;;;;;;;;;;;13.57;84.28;100186.72;1676094;84;20192;-74
2022/09/11 03:00:00;;;;;;;;;;;;;;;13.59;84.30;100187.34;1668790;85;20194;-74
2022/09/11 03:02:28;;;;;;;;;;;;;;;13.58;84.32;100188.89;1676749;84;20188;-74
2022/09/11 03:04:55;;;;;;;;;;;;;;;13.57;84.38;100184.55;1676701;85;21014;-75
2022/09/11 03:07:24;;;;;;;;;;;;;;;13.57;84.45;100186.72;1676547;84;20178;-74
2022/09/11 03:09:50;;;;;;;;;;;;;;;13.57;84.47;100188.06;1671276;84;20203;-74
2022/09/11 03:12:17;;;;;;;;;;;;;;;13.56;84.51;100188.24;1676062;85;20219;-74
2022/09/11 03:14:42;;;;;;;;;;;;;;;13.56;84.57;100179.70;1675944;84;20551;-74
2022/09/11 03:17:08;;;;;;;;;;;;;;;13.55;84.61;100179.37;1675886;85;21740;-74
2022/09/11 03:19:34;;;;;;;;;;;;;;;13.56;84.67;100184.22;1675773;84;20697;-75
2022/09/11 03:22:01;;;;;;;;;;;;;;;13.54;84.71;100180.92;1676692;85;20226;-74
2022/09/11 03:24:28;;;;;;;;;;;;;;;13.54;84.75;100184.94;1670783;85;20515;-74
2022/09/11 03:26:53;;;;;;;;;;;;;;;13.53;84.79;100188.64;1675990;84;20206;-74
2022/09/11 03:29:19;;;;;;;;;;;;;;;13.52;84.85;100181.11;1674539;84;21227;-74
2022/09/11 03:31:46;;;;;;;;;;;;;;;13.53;84.91;100180.59;1676101;84;20806;-74
2022/09/11 03:34:13;;;;;;;;;;;;;;;13.53;84.94;100180.59;1676556;84;20255;-74
2022/09/11 03:36:39;;;;;;;;;;;;;;;13.51;84.96;100174.91;1676443;84;20417;-74
2022/09/11 03:39:05;;;;;;;;;;;;;;;13.55;85.02;100181.22;1671237;85;20797;-74
2022/09/11 03:41:31;;;;;;;;;;;;;;;13.57;85.06;100173.33;1676789;84;20985;-74
2022/09/11 03:43:57;;;;;;;;;;;;;;;13.59;85.08;100185.17;1675821;84;20396;-74
2022/09/11 03:46:24;;;;;;;;;;;;;;;13.61;85.12;100180.47;1675887;84;20250;-74
2022/09/11 03:48:52;;;;;;;;;;;;;;;13.63;85.16;100181.08;1675962;85;20171;-74
2022/09/11 03:51:19;;;;;;;;;;;;;;;13.62;85.19;100182.93;1676047;84;20535;-74
2022/09/11 03:53:45;;;;;;;;;;;;;;;13.64;85.23;100192.96;1675769;84;21083;-75
2022/09/11 03:56:11;;;;;;;;;;;;;;;13.65;85.29;100185.75;1674511;85;20217;-75
2022/09/11 03:58:37;;;;;;;;;;;;;;;13.66;85.31;100191.41;1674883;85;20191;-75
2022/09/11 04:01:11;;;;;;;;;;;;;;;13.65;85.32;100193.25;1675439;84;20186;-75
2022/09/11 04:03:38;;;;;;;;;;;;;;;13.64;85.38;100198.32;1676179;85;20212;-74
2022/09/11 04:06:04;;;;;;;;;;;;;;;13.65;85.43;100197.81;1676781;85;21087;-74
2022/09/11 04:08:32;;;;;;;;;;;;;;;13.65;85.41;100189.77;1673102;84;20179;-74
2022/09/11 04:10:59;;;;;;;;;;;;;;;13.63;85.45;100193.14;1674434;85;20183;-74
2022/09/11 04:13:28;;;;;;;;;;;;;;;13.64;85.50;100198.83;1675234;84;20219;-74
2022/09/11 04:16:03;;;;;;;;;;;;;;;13.64;85.55;100194.81;1676100;84;20199;-75
2022/09/11 04:18:29;;;;;;;;;;;;;;;13.64;85.57;100190.79;1675536;84;21089;-75
2022/09/11 04:20:56;;;;;;;;;;;;;;;13.63;85.59;100197.16;1675895;84;20192;-74
2022/09/11 04:23:22;;;;;;;;;;;;;;;13.62;85.61;100192.81;1675395;84;20234;-74
2022/09/11 04:25:48;;;;;;;;;;;;;;;13.60;85.63;100192.20;1675052;85;20678;-75
2022/09/11 04:28:13;;;;;;;;;;;;;;;13.60;85.67;100190.85;1675402;84;20250;-75
2022/09/11 04:30:41;;;;;;;;;;;;;;;13.58;85.71;100184.34;1672007;84;21081;-75
2022/09/11 04:33:07;;;;;;;;;;;;;;;13.60;85.73;100185.50;1676133;85;20179;-75
2022/09/11 04:35:38;;;;;;;;;;;;;;;13.59;85.76;100190.53;1676093;84;20297;-75
2022/09/11 04:38:04;;;;;;;;;;;;;;;13.61;85.82;100193.35;1678642;84;20182;-75
2022/09/11 04:40:32;;;;;;;;;;;;;;;13.63;85.83;100190.46;1676573;85;20309;-75
2022/09/11 04:42:57;;;;;;;;;;;;;;;13.63;85.86;100189.13;1664877;84;21158;-75
2022/09/11 04:45:23;;;;;;;;;;;;;;;13.63;85.91;100189.13;1676687;84;20217;-75
2022/09/11 04:47:51;;;;;;;;;;;;;;;13.62;85.93;100187.45;1675544;84;20233;-75
2022/09/11 04:50:18;;;;;;;;;;;;;;;13.63;85.95;100191.80;1668767;84;20595;-75
2022/09/11 04:52:44;;;;;;;;;;;;;;;13.64;86.01;100188.11;1675946;85;20511;-75
2022/09/11 04:55:10;;;;;;;;;;;;;;;13.69;86.07;100192.35;1676109;85;21901;-75
2022/09/11 04:57:37;;;;;;;;;;;;;;;13.73;86.08;100189.60;1673985;85;20539;-75
2022/09/11 05:00:04;;;;;;;;;;;;;;;13.75;86.12;100191.09;1673157;85;20636;-70
2022/09/11 05:02:30;;;;;;;;;;;;;;;13.78;86.15;100189.86;1676024;84;20871;-75
2022/09/11 05:04:57;;;;;;;;;;;;;;;13.81;86.20;100192.98;1676504;85;20308;-75
2022/09/11 05:07:24;;;;;;;;;;;;;;;13.83;86.23;100190.92;1676650;84;21936;-75
2022/09/11 05:09:53;;;;;;;;;;;;;;;13.84;86.24;100197.11;1675261;85;20191;-75
2022/09/11 05:12:20;;;;;;;;;;;;;;;13.85;86.27;100196.93;1666894;84;20211;-75
2022/09/11 05:14:46;;;;;;;;;;;;;;;13.90;86.32;100203.02;1675979;84;20204;-75
2022/09/11 05:17:12;;;;;;;;;;;;;;;13.93;86.38;100209.36;1675765;84;20206;-74
2022/09/11 05:19:39;;;;;;;;;;;;;;;13.97;86.45;100207.91;1672769;84;22087;-75
2022/09/11 05:22:05;;;;;;;;;;;;;;;13.97;86.49;100206.06;1691561;85;20202;-75
2022/09/11 05:24:31;;;;;;;;;;;;;;;14.00;86.54;100214.25;1676956;83;20187;-75
2022/09/11 05:27:00;;;;;;;;;;;;;;;14.01;86.54;100210.52;1677606;84;20249;-75
2022/09/11 05:29:29;;;;;;;;;;;;;;;14.04;86.60;100211.47;1678275;84;20483;-75
2022/09/11 05:31:57;;;;;;;;;;;;;;;14.11;86.63;100215.02;1676183;85;21080;-75
2022/09/11 05:34:30;;;;;;;;;;;;;;;14.18;86.69;100221.25;1677454;85;20210;-75
2022/09/11 05:36:57;;;;;;;;;;;;;;;14.23;86.71;100218.81;1676495;85;20499;-75
2022/09/11 05:39:23;;;;;;;;;;;;;;;14.28;86.75;100221.75;1677700;85;20477;-75
2022/09/11 05:41:51;;;;;;;;;;;;;;;14.28;86.76;100219.58;1678684;84;20215;-75
2022/09/11 05:44:18;;;;;;;;;;;;;;;14.27;86.77;100224.61;1676116;84;21110;-75
2022/09/11 05:46:44;;;;;;;;;;;;;;;14.29;86.79;100228.75;1675253;84;20211;-75
2022/09/11 05:49:11;;;;;;;;;;;;;;;14.33;86.84;100234.03;1675591;85;20191;-75
2022/09/11 05:51:39;;;;;;;;;;;;;;;14.34;86.86;100243.78;1674496;84;20214;-75
2022/09/11 05:54:06;;;;;;;;;;;;;;;14.37;86.88;100243.38;1674449;84;20214;-75
2022/09/11 05:56:32;;;;;;;;;;;;;;;14.38;86.89;100249.06;1683024;84;21863;-75
2022/09/11 05:58:58;;;;;;;;;;;;;;;14.35;86.89;100252.16;1675242;84;20230;-76
2022/09/11 06:01:25;;;;;;;;;;;;;;;14.31;86.87;100250.86;1675903;84;20195;-76
2022/09/11 06:03:51;;;;;;;;;;;;;;;14.33;86.88;100255.50;1676795;85;20498;-76
2022/09/11 06:06:20;;;;;;;;;;;;;;;14.30;86.89;100254.55;1677324;85;20470;-76
2022/09/11 06:08:46;;;;;;;;;;;;;;;14.29;86.88;100252.89;1681075;84;21083;-76
2022/09/11 06:11:13;;;;;;;;;;;;;;;14.30;86.90;100256.41;1680999;85;20190;-76
2022/09/11 06:13:43;;;;;;;;;;;;;;;14.31;86.90;100258.91;1682582;85;20222;-76
2022/09/11 06:16:10;;;;;;;;;;;;;;;14.34;86.89;100258.53;1680386;85;20499;-75
2022/09/11 06:18:35;;;;;;;;;;;;;;;14.37;86.91;100259.48;1680849;84;20202;-76
2022/09/11 06:21:06;;;;;;;;;;;;;;;14.44;86.94;100258.17;1681446;85;21282;-75
2022/09/11 06:23:36;;;;;;;;;;;;;;;14.49;86.93;100265.13;1682173;84;20215;-76
2022/09/11 06:26:03;;;;;;;;;;;;;;;14.52;86.94;100271.94;1682953;85;20243;-76
2022/09/11 06:28:29;;;;;;;;;;;;;;;14.53;86.98;100275.75;1681294;84;20247;-76
2022/09/11 06:30:55;;;;;;;;;;;;;;;14.54;86.97;100277.92;1683389;85;20246;-76
2022/09/11 06:33:21;;;;;;;;;;;;;;;14.53;86.97;100280.31;1681673;84;21101;-76
2022/09/11 06:36:00;;;;;;;;;;;;;;;14.53;86.95;100281.66;1680494;85;20289;-75
2022/09/11 06:38:27;;;;;;;;;;;;;;;14.55;86.99;100279.59;1681021;85;20215;-75
2022/09/11 06:40:53;;;;;;;;;;;;;;;14.60;87.00;100289.23;1681400;84;20711;-76
2022/09/11 06:43:19;;;;;;;;;;;;;;;14.61;86.97;100285.50;1681065;84;20210;-76
2022/09/11 06:45:47;;;;;;;;;;;;;;;14.60;86.96;100280.64;1682715;84;21955;-76
2022/09/11 06:48:16;;;;;;;;;;;;;;;14.59;86.95;100284.87;1681675;85;20207;-76
2022/09/11 06:50:42;;;;;;;;;;;;;;;14.57;86.97;100280.20;1672470;85;20219;-76
2022/09/11 06:53:07;;;;;;;;;;;;;;;14.59;86.98;100291.08;1675144;84;20739;-76
2022/09/11 06:55:33;;;;;;;;;;;;;;;14.59;86.99;100285.72;1686665;83;20233;-77
2022/09/11 06:58:01;;;;;;;;;;;;;;;14.62;86.96;100287.16;1683742;84;21652;-76
2022/09/11 07:00:27;;;;;;;;;;;;;;;14.63;86.94;100287.48;1683749;85;20183;-76
2022/09/11 07:02:53;;;;;;;;;;;;;;;14.62;86.97;100284.48;1678395;85;20242;-77
2022/09/11 07:05:21;;;;;;;;;;;;;;;14.64;86.95;100282.41;1676330;85;20179;-76
2022/09/11 07:07:49;;;;;;;;;;;;;;;14.62;86.94;100280.45;1683546;84;20191;-76
2022/09/11 07:10:15;;;;;;;;;;;;;;;14.63;86.95;100287.48;1663150;85;21741;-77
2022/09/11 07:12:41;;;;;;;;;;;;;;;14.66;86.93;100280.38;1683295;84;20206;-77
2022/09/11 07:15:08;;;;;;;;;;;;;;;14.72;86.93;100286.28;1683055;84;20213;-76
2022/09/11 07:17:35;;;;;;;;;;;;;;;14.77;86.93;100290.55;1683390;84;20647;-76
2022/09/11 07:20:03;;;;;;;;;;;;;;;14.83;86.95;100295.11;1681566;84;20190;-76
2022/09/11 07:22:30;;;;;;;;;;;;;;;14.84;86.87;100294.09;1683892;84;21109;-78
2022/09/11 07:24:56;;;;;;;;;;;;;;;14.82;86.84;100293.45;1677951;84;20181;-77
2022/09/11 07:27:22;;;;;;;;;;;;;;;14.83;86.87;100297.80;1682590;84;20186;-76
2022/09/11 07:29:48;;;;;;;;;;;;;;;14.83;86.83;100301.83;1683420;84;20261;-76
2022/09/11 07:32:14;;;;;;;;;;;;;;;14.80;86.80;100308.94;1678474;85;20178;-76
2022/09/11 07:34:40;;;;;;;;;;;;;;;14.77;86.79;100309.34;1682071;84;21194;-76
2022/09/11 07:37:06;;;;;;;;;;;;;;;14.73;86.76;100311.59;1683817;85;20897;-76
2022/09/11 07:39:31;;;;;;;;;;;;;;;14.74;86.77;100305.18;1682916;84;20288;-76
2022/09/11 07:41:57;;;;;;;;;;;;;;;14.73;86.74;100301.37;1658292;85;20170;-77
2022/09/11 07:44:24;;;;;;;;;;;;;;;14.73;86.71;100308.08;1684036;85;20183;-76
2022/09/11 07:46:50;;;;;;;;;;;;;;;14.74;86.74;100305.18;1683150;85;21050;-77
2022/09/11 07:49:16;;;;;;;;;;;;;;;14.77;86.72;100308.84;1676671;85;20188;-77
2022/09/11 07:51:42;;;;;;;;;;;;;;;14.81;86.71;100309.27;1684098;84;20218;-77
2022/09/11 07:54:10;;;;;;;;;;;;;;;14.86;86.71;100308.13;1683734;85;20187;-77
2022/09/11 07:56:36;;;;;;;;;;;;;;;14.89;86.68;100310.42;1683595;85;20198;-77
2022/09/11 07:59:07;;;;;;;;;;;;;;;14.90;86.67;100313.42;1683924;84;20502;-76
2022/09/11 08:01:33;;;;;;;;;;;;;;;14.95;86.65;100313.12;1684066;85;20471;-77
2022/09/11 08:04:01;;;;;;;;;;;;;;;15.03;86.64;100307.27;1683951;85;20510;-77
2022/09/11 08:06:30;;;;;;;;;;;;;;;15.09;86.64;100312.69;1681149;85;20217;-77
2022/09/11 08:08:57;;;;;;;;;;;;;;;15.23;86.63;100319.77;1675699;85;20189;-77
2022/09/11 08:11:23;;;;;;;;;;;;;;;15.36;86.65;100321.14;1673129;85;21090;-77
2022/09/11 08:13:50;;;;;;;;;;;;;;;15.44;86.60;100316.93;1674639;84;20239;-77
2022/09/11 08:16:17;;;;;;;;;;;;;;;15.51;86.55;100320.17;1683673;85;20247;-77
2022/09/11 08:18:43;;;;;;;;;;;;;;;15.60;86.51;100322.97;1683852;84;20234;-77
2022/09/11 08:21:10;;;;;;;;;;;;;;;15.71;86.53;100321.02;1684012;85;20230;-77
2022/09/11 08:23:36;;;;;;;;;;;;;;;15.76;86.46;100319.91;1679718;84;21124;-77
2022/09/11 08:26:05;;;;;;;;;;;;;;;15.75;86.40;100321.77;1667818;84;20206;-77
2022/09/11 08:28:30;;;;;;;;;;;;;;;15.82;86.40;100325.80;1665167;84;20194;-77
2022/09/11 08:31:01;;;;;;;;;;;;;;;15.92;86.35;100328.91;1643015;85;20189;-77
2022/09/11 08:33:25;;;;;;;;;;;;;;;15.95;86.27;100324.45;1683473;84;20479;-76
2022/09/11 08:35:51;;;;;;;;;;;;;;;16.08;86.27;100323.64;1664458;85;21217;-76
2022/09/11 08:38:17;;;;;;;;;;;;;;;16.15;86.21;100326.62;1658198;85;20296;-77
2022/09/11 08:40:43;;;;;;;;;;;;;;;16.12;86.09;100328.37;1659493;85;20197;-77
2022/09/11 08:43:13;;;;;;;;;;;;;;;16.05;86.03;100330.76;1657424;85;20797;-76
2022/09/11 08:45:39;;;;;;;;;;;;;;;15.98;85.97;100338.83;1657526;85;20182;-76
2022/09/11 08:48:06;;;;;;;;;;;;;;;15.93;85.92;100336.78;1669571;84;21769;-77
2022/09/11 08:50:38;;;;;;;;;;;;;;;15.94;85.90;100332.20;1683686;85;20194;-76
2022/09/11 08:53:04;;;;;;;;;;;;;;;15.93;85.82;100337.30;1683856;84;20193;-76
2022/09/11 08:55:39;;;;;;;;;;;;;;;16.06;85.83;100339.98;1683890;84;20183;-77
2022/09/11 08:58:35;;;;;;;;;;;;;;;16.31;85.86;100325.37;1683858;84;20510;-77
2022/09/11 09:01:20;;;;;;;;;;;;;;;16.57;85.80;100332.63;1683840;84;20952;-77
2022/09/11 09:03:52;;;;;;;;;;;;;;;16.77;85.71;100338.78;1683921;85;20194;-77
2022/09/11 09:06:25;;;;;;;;;;;;;;;17.01;85.64;100335.38;1683866;85;20483;-77
2022/09/11 09:09:01;;;;;;;;;;;;;;;17.26;85.61;100325.53;1677432;85;20197;-77
2022/09/11 09:11:43;;;;;;;;;;;;;;;17.45;85.45;100332.67;1703676;83;20450;-77
2022/09/11 09:14:44;;;;;;;;;;;;;;;17.59;85.29;100324.56;1656275;85;21316;-77
2022/09/11 09:17:13;;;;;;;;;;;;;;;17.71;85.10;100329.03;1681513;83;20162;-76
2022/09/11 09:19:48;;;;;;;;;;;;;;;17.74;84.92;100334.50;1679546;84;20224;-76
2022/09/11 09:22:27;;;;;;;;;;;;;;;17.69;84.75;100333.83;1666154;85;20683;-76
2022/09/11 09:24:55;;;;;;;;;;;;;;;17.64;84.55;100334.16;1678784;85;20183;-77
2022/09/11 09:27:27;;;;;;;;;;;;;;;17.60;84.38;100341.02;1675136;85;21122;-76
2022/09/11 09:29:54;;;;;;;;;;;;;;;17.48;84.16;100341.70;1675475;85;20538;-77
2022/09/11 09:32:37;;;;;;;;;;;;;;;17.42;84.01;100346.59;1657201;85;20204;-76
2022/09/11 09:35:06;;;;;;;;;;;;;;;17.42;83.88;100342.55;1668817;84;20225;-71
2022/09/11 09:37:32;;;;;;;;;;;;;;;17.37;83.69;100347.78;1668006;84;20251;-71
2022/09/11 09:39:59;;;;;;;;;;;;;;;17.32;83.56;100346.23;1669465;85;21201;-71
2022/09/11 09:42:38;;;;;;;;;;;;;;;17.23;83.38;100350.74;1672979;84;20176;-72
2022/09/11 09:45:11;;;;;;;;;;;;;;;17.10;83.22;100356.20;1660532;85;20195;-71
2022/09/11 09:47:38;;;;;;;;;;;;;;;17.05;83.14;100357.34;1670402;84;20191;-72
2022/09/11 09:50:05;;;;;;;;;;;;;;;17.07;83.05;100353.38;1672489;84;20223;-73
2022/09/11 09:52:32;;;;;;;;;;;;;;;17.03;82.87;100357.54;1674899;85;21125;-72
2022/09/11 09:55:00;;;;;;;;;;;;;;;17.01;82.79;100360.15;1672437;84;20589;-72
2022/09/11 09:57:32;;;;;;;;;;;;;;;17.02;82.66;100358.60;1673617;85;20471;-72
2022/09/11 10:00:10;;;;;;;;;;;;;;;16.99;82.47;100366.56;1675406;84;20532;-72
2022/09/11 10:02:52;;;;;;;;;;;;;;;16.94;82.35;100366.39;1673505;85;20582;-73
2022/09/11 10:05:21;;;;;;;;;;;;;;;16.90;82.17;100361.63;1674290;85;21228;-73
2022/09/11 10:07:50;;;;;;;;;;;;;;;16.87;82.06;100371.48;1674069;84;20183;-72
2022/09/11 10:10:22;;;;;;;;;;;;;;;16.89;81.93;100368.88;1672092;84;20215;-73
2022/09/11 10:12:49;;;;;;;;;;;;;;;16.93;81.78;100372.81;1676518;85;20183;-73
2022/09/11 10:15:21;;;;;;;;;;;;;;;16.91;81.62;100376.77;1675872;84;20216;-73
2022/09/11 10:17:47;;;;;;;;;;;;;;;16.83;81.44;100376.47;1676949;84;21122;-73
2022/09/11 10:20:24;;;;;;;;;;;;;;;16.74;81.31;100380.44;1671285;84;20219;-76
2022/09/11 10:22:51;;;;;;;;;;;;;;;16.77;81.27;100377.84;1673972;84;20509;-76
2022/09/11 10:25:25;;;;;;;;;;;;;;;16.95;81.17;100382.05;1674564;84;20462;-76
2022/09/11 10:28:01;;;;;;;;;;;;;;;17.14;81.09;100380.30;1676239;85;20327;-77
2022/09/11 10:30:37;;;;;;;;;;;;;;;17.28;80.89;100377.34;1676007;84;21034;-76
2022/09/11 10:33:19;;;;;;;;;;;;;;;17.42;80.66;100378.95;1675182;85;20184;-76
2022/09/11 10:35:51;;;;;;;;;;;;;;;17.45;80.49;100384.45;1673535;85;20178;-76
2022/09/11 10:38:17;;;;;;;;;;;;;;;17.48;80.40;100380.80;1675417;85;20888;-76
2022/09/11 10:40:55;;;;;;;;;;;;;;;17.51;80.29;100382.23;1673588;85;20634;-76
2022/09/11 10:43:24;;;;;;;;;;;;;;;17.59;80.21;100383.89;1674800;85;20988;-76
2022/09/11 10:46:30;;;;;;;;;;;;;;;17.63;80.05;100386.44;1671234;85;20507;-76
2022/09/11 10:49:03;;;;;;;;;;;;;;;17.59;79.86;100393.33;1670719;85;20673;-76
2022/09/11 10:51:30;;;;;;;;;;;;;;;17.58;79.74;100391.15;1670902;85;20662;-76
2022/09/11 10:54:28;;;;;;;;;;;;;;;17.63;79.57;100394.53;1671299;84;20180;-76
2022/09/11 10:57:24;;;;;;;;;;;;;;;17.70;79.30;100400.71;1675396;84;21767;-76
2022/09/11 10:59:59;;;;;;;;;;;;;;;17.80;78.99;100394.35;1672727;85;20179;-76
2022/09/11 11:02:28;;;;;;;;;;;;;;;17.97;78.80;100398.18;1675864;84;20206;-76
2022/09/11 11:05:00;;;;;;;;;;;;;;;18.03;78.53;100404.05;1676068;84;20982;-76
2022/09/11 11:07:39;;;;;;;;;;;;;;;18.13;78.32;100401.69;1674718;85;20173;-76
2022/09/11 11:10:09;;;;;;;;;;;;;;;18.27;78.07;100397.84;1652108;85;21106;-76
2022/09/11 11:12:44;;;;;;;;;;;;;;;18.35;77.84;100401.62;1670430;85;20148;-76
2022/09/11 11:15:20;;;;;;;;;;;;;;;18.35;77.55;100403.49;1638778;84;20181;-76
2022/09/11 11:18:05;;;;;;;;;;;;;;;18.23;77.25;100404.72;1671324;85;20193;-76
2022/09/11 11:20:35;;;;;;;;;;;;;;;18.07;77.00;100402.57;1671445;84;20195;-75
2022/09/11 11:23:10;;;;;;;;;;;;;;;17.93;76.79;100401.00;1671097;85;21844;-76
2022/09/11 11:25:46;;;;;;;;;;;;;;;17.88;76.65;100402.16;1672186;83;20218;-76
2022/09/11 11:28:30;;;;;;;;;;;;;;;17.85;76.39;100405.30;1673781;85;20534;-76
2022/09/11 11:31:09;;;;;;;;;;;;;;;17.79;76.20;100395.39;1673722;85;20183;-76
2022/09/11 11:34:01;;;;;;;;;;;;;;;17.80;75.91;100399.75;1673845;85;20223;-76
2022/09/11 11:36:37;;;;;;;;;;;;;;;17.74;75.68;100401.42;1658488;85;21180;-76
2022/09/11 11:39:31;;;;;;;;;;;;;;;17.83;75.63;100396.09;1673673;85;20491;-77
2022/09/11 11:42:06;;;;;;;;;;;;;;;17.86;75.34;100397.52;1674019;85;20191;-77
2022/09/11 11:44:42;;;;;;;;;;;;;;;17.92;75.26;100404.73;1673065;85;20195;-76
2022/09/11 11:47:11;;;;;;;;;;;;;;;17.98;75.11;100399.30;1673944;85;20167;-76
2022/09/11 11:49:44;;;;;;;;;;;;;;;18.04;75.00;100404.36;1673716;85;21307;-76
2022/09/11 11:52:35;;;;;;;;;;;;;;;18.05;74.82;100407.34;1673730;84;20300;-76
2022/09/11 11:55:15;;;;;;;;;;;;;;;18.10;74.80;100406.17;1656718;85;20191;-76
2022/09/11 11:57:44;;;;;;;;;;;;;;;18.26;74.77;100411.03;1671061;85;20208;-76
2022/09/11 12:00:12;;;;;;;;;;;;;;;18.33;74.66;100414.50;1673770;85;20503;-76
2022/09/11 12:02:52;;;;;;;;;;;;;;;18.25;74.54;100413.96;1654652;85;20172;-76
2022/09/11 12:05:23;;;;;;;;;;;;;;;18.29;74.55;100417.36;1673774;85;20211;-76
2022/09/11 12:07:49;;;;;;;;;;;;;;;18.38;74.50;100417.38;1673710;85;20176;-76
2022/09/11 12:10:29;;;;;;;;;;;;;;;18.54;74.48;100421.45;1654366;85;20208;-75
2022/09/11 12:13:01;;;;;;;;;;;;;;;18.69;74.31;100421.09;1673648;84;20185;-76
2022/09/11 12:15:30;;;;;;;;;;;;;;;18.81;74.16;100415.27;1673869;85;21748;-76
2022/09/11 12:18:02;;;;;;;;;;;;;;;18.84;73.93;100414.81;1673675;85;20199;-75
2022/09/11 12:20:36;;;;;;;;;;;;;;;18.83;73.66;100415.34;1672986;84;20262;-76
2022/09/11 12:23:02;;;;;;;;;;;;;;;18.87;73.36;100418.42;1673800;84;20208;-76
2022/09/11 12:25:35;;;;;;;;;;;;;;;18.94;73.14;100421.36;1673767;83;20204;-75
2022/09/11 12:28:21;;;;;;;;;;;;;;;19.01;72.93;100419.10;1672090;85;21184;-75
2022/09/11 12:31:00;;;;;;;;;;;;;;;19.06;72.79;100417.40;1671200;85;20219;-75
2022/09/11 12:33:46;;;;;;;;;;;;;;;18.96;72.52;100419.80;1669659;84;20446;-76
2022/09/11 12:36:16;;;;;;;;;;;;;;;18.82;72.39;100419.08;1669529;85;20788;-76
2022/09/11 12:39:04;;;;;;;;;;;;;;;18.74;72.32;100421.26;1671994;85;20597;-76
2022/09/11 12:41:33;;;;;;;;;;;;;;;18.64;72.27;100416.89;1661532;84;21881;-75
2022/09/11 12:43:59;;;;;;;;;;;;;;;18.47;72.18;100414.70;1669431;85;20164;-76
2022/09/11 12:46:29;;;;;;;;;;;;;;;18.34;72.07;100414.81;1670440;85;20212;-75
2022/09/11 12:49:01;;;;;;;;;;;;;;;18.29;72.03;100414.66;1670952;85;20216;-74
2022/09/11 12:51:31;;;;;;;;;;;;;;;18.23;71.91;100418.22;1670074;85;20207;-75
2022/09/11 12:54:01;;;;;;;;;;;;;;;18.20;71.86;100415.96;1672569;84;21062;-75